Time;durP1;ratioP1;P1;durP2;ratioP2;P2;SDS_P1;SDS_P2;PMS_P1;PMS_P2;Temp;Humidity;BMP_temperature;BMP_pressure;BME280_temperature;BME280_humidity;BME280_pressure;Samples;Min_cycle;Max_cycle;Signal;HPM_P1;HPM_P2
2023/01/30 00:01:22;;;;;;;66.75;32.03;;;;;;;3.27;100.00;100157.72;4975034;28;20049;-81
2023/01/30 00:03:48;;;;;;;65.85;29.95;;;;;;;3.29;100.00;100158.44;4993315;28;20034;-83
2023/01/30 00:06:14;;;;;;;68.32;32.00;;;;;;;3.32;100.00;100154.69;4961181;28;20034;-84
2023/01/30 00:08:39;;;;;;;67.75;30.48;;;;;;;3.38;100.00;100173.50;4976691;28;20050;-84
2023/01/30 00:11:07;;;;;;;65.00;33.05;;;;;;;3.41;100.00;100159.19;4994108;28;20026;-85
2023/01/30 00:13:33;;;;;;;72.45;32.00;;;;;;;3.42;100.00;100138.91;4960299;28;20026;-84
2023/01/30 00:15:58;;;;;;;69.15;31.48;;;;;;;3.43;100.00;100127.41;4973088;28;20578;-86
2023/01/30 00:18:24;;;;;;;70.57;31.65;;;;;;;3.47;100.00;100115.63;4958121;28;20049;-84
2023/01/30 00:21:00;;;;;;;63.38;34.20;;;;;;;3.47;100.00;100111.19;4976889;28;20434;-83
2023/01/30 00:23:26;;;;;;;;;;;;;;;3.52;100.00;100092.31;4972043;28;20058;-82
2023/01/30 00:25:52;;;;;;;64.53;30.05;;;;;;;3.49;100.00;100095.19;4975555;28;20538;-85
2023/01/30 00:28:17;;;;;;;66.85;31.60;;;;;;;3.47;100.00;100105.91;4956080;28;20452;-85
2023/01/30 00:30:43;;;;;;;59.35;29.90;;;;;;;3.50;100.00;100088.97;4958558;28;20091;-81
2023/01/30 00:33:09;;;;;;;75.03;32.60;;;;;;;3.54;100.00;100082.44;4968568;28;20026;-83
2023/01/30 00:35:34;;;;;;;70.63;33.10;;;;;;;3.60;100.00;100084.53;4990624;28;20288;-85
2023/01/30 00:38:00;;;;;;;75.17;32.90;;;;;;;3.59;100.00;100070.50;4962506;28;20623;-85
2023/01/30 00:40:27;;;;;;;70.97;31.25;;;;;;;3.65;100.00;100060.38;4964177;28;20026;-84
2023/01/30 00:48:24;;;;;;;58.38;29.55;;;;;;;3.71;100.00;100059.84;4991628;28;20038;-83
2023/01/30 00:50:49;;;;;;;64.45;31.17;;;;;;;3.71;100.00;100054.56;4974066;28;20665;-84
2023/01/30 00:53:15;;;;;;;74.53;31.87;;;;;;;3.62;100.00;100048.28;4974104;28;20042;-84
2023/01/30 00:55:42;;;;;;;54.83;28.65;;;;;;;3.69;100.00;100045.94;4992120;28;20273;-83
2023/01/30 00:58:08;;;;;;;71.28;28.73;;;;;;;3.69;100.00;100048.59;4974228;28;20045;-84
2023/01/30 01:00:33;;;;;;;;;;;;;;;3.68;100.00;100047.75;4974883;28;20022;-84
2023/01/30 01:02:59;;;;;;;62.40;28.35;;;;;;;3.70;100.00;100039.69;4990389;28;20337;-85
2023/01/30 01:05:25;;;;;;;71.63;30.42;;;;;;;3.64;100.00;100038.44;4973904;28;20027;-85
2023/01/30 01:07:51;;;;;;;70.97;28.25;;;;;;;3.58;100.00;100036.31;4990987;28;20042;-84
2023/01/30 01:10:17;;;;;;;63.08;27.98;;;;;;;3.66;100.00;100047.06;4973998;28;20026;-84
2023/01/30 01:12:43;;;;;;;60.50;29.88;;;;;;;3.62;100.00;100048.28;4967187;28;20041;-81
2023/01/30 01:15:11;;;;;;;68.55;29.67;;;;;;;3.62;100.00;100044.81;4976700;28;20026;-83
2023/01/30 01:17:37;;;;;;;64.57;30.33;;;;;;;3.65;100.00;100034.81;4982073;28;20081;-84
2023/01/30 01:20:03;;;;;;;72.32;30.92;;;;;;;3.55;100.00;100050.63;4973761;28;20097;-84
2023/01/30 01:22:28;;;;;;;78.35;31.52;;;;;;;3.59;100.00;100046.75;4986786;28;20598;-82
2023/01/30 01:24:54;;;;;;;73.07;30.23;;;;;;;3.61;100.00;100051.91;4962690;28;20035;-85
2023/01/30 01:27:19;;;;;;;62.13;28.67;;;;;;;3.61;100.00;100049.28;4957509;28;20289;-84
2023/01/30 01:29:44;;;;;;;65.83;29.47;;;;;;;3.62;100.00;100040.38;4973687;28;20034;-84
2023/01/30 01:32:10;;;;;;;63.63;29.00;;;;;;;3.65;100.00;100042.72;4973639;28;20732;-85
2023/01/30 01:34:35;;;;;;;63.77;27.43;;;;;;;3.65;100.00;100042.72;4957001;28;20022;-84
2023/01/30 01:37:00;;;;;;;62.97;27.60;;;;;;;3.67;100.00;100045.25;4970862;28;20026;-85
2023/01/30 01:41:00;;;;;;;60.03;27.40;;;;;;;3.63;100.00;100034.13;4975189;28;20104;-83
2023/01/30 01:42:11;;;;;;;64.45;27.30;;;;;;;3.68;100.00;100031.09;4976072;28;20034;-84
2023/01/30 01:45:10;;;;;;;64.13;28.33;;;;;;;3.69;100.00;100022.19;4992897;28;20526;-85
2023/01/30 01:47:40;;;;;;;59.05;25.35;;;;;;;3.72;100.00;100008.72;4974410;28;20046;-85
2023/01/30 01:50:12;;;;;;;53.83;23.20;;;;;;;3.70;100.00;100008.88;4976657;28;20121;-85
2023/01/30 01:52:38;;;;;;;54.22;22.23;;;;;;;3.70;100.00;100006.22;4976276;28;20038;-83
2023/01/30 01:55:06;;;;;;;49.42;23.55;;;;;;;3.68;100.00;100000.25;4963701;28;20030;-82
2023/01/30 01:57:37;;;;;;;46.60;20.48;;;;;;;3.75;100.00;99988.16;4977005;28;20034;-83
2023/01/30 02:00:15;;;;;;;50.03;21.08;;;;;;;3.74;100.00;99994.41;4960821;28;20022;-83
2023/01/30 02:02:48;;;;;;;52.40;22.50;;;;;;;3.77;100.00;99970.38;4995966;28;20026;-82
2023/01/30 02:05:17;;;;;;;46.38;20.08;;;;;;;3.80;100.00;99972.72;4993305;28;20030;-85
2023/01/30 02:07:51;;;;;;;45.22;20.10;;;;;;;3.84;100.00;99969.81;4977974;28;20046;-81
2023/01/30 02:10:21;;;;;;;41.80;18.77;;;;;;;3.85;100.00;99968.84;4993163;28;20034;-82
2023/01/30 02:12:49;;;;;;;42.50;19.80;;;;;;;3.87;100.00;99967.75;4973929;28;20046;-85
2023/01/30 02:15:16;;;;;;;38.45;17.85;;;;;;;3.88;100.00;99965.94;4973866;28;20034;-82
2023/01/30 02:17:41;;;;;;;43.83;18.60;;;;;;;3.90;100.00;99951.59;4973547;28;20024;-84
2023/01/30 02:20:29;;;;;;;46.90;19.27;;;;;;;3.92;100.00;99948.84;4957105;28;20113;-83
2023/01/30 02:23:03;;;;;;;38.22;17.92;;;;;;;3.97;100.00;99941.31;4989517;28;20030;-82
2023/01/30 02:25:48;;;;;;;38.65;16.50;;;;;;;3.95;100.00;99922.97;4974460;28;20045;-83
2023/01/30 02:28:41;;;;;;;37.83;17.63;;;;;;;3.96;100.00;99913.25;4957623;28;20587;-83
2023/01/30 02:31:13;;;;;;;38.55;16.23;;;;;;;3.97;100.00;99902.53;4972106;28;20045;-82
2023/01/30 02:34:02;;;;;;;42.78;17.13;;;;;;;3.97;100.00;99901.72;4976786;28;20052;-85
2023/01/30 02:36:43;;;;;;;38.72;16.58;;;;;;;4.02;100.00;99908.22;4972615;28;20038;-82
2023/01/30 02:39:30;;;;;;;41.85;16.95;;;;;;;4.04;100.00;99899.34;4974608;28;20041;-84
2023/01/30 02:42:18;;;;;;;36.35;15.68;;;;;;;4.06;100.00;99900.88;4959310;28;20038;-85
2023/01/30 02:45:21;;;;;;;32.20;15.27;;;;;;;4.13;100.00;99885.28;5004040;28;20107;-84
2023/01/30 02:47:57;;;;;;;28.90;15.40;;;;;;;4.16;100.00;99895.56;4969593;28;20038;-85
2023/01/30 02:50:29;;;;;;;37.15;15.65;;;;;;;4.17;100.00;99879.59;4976968;28;20042;-84
2023/01/30 02:52:56;;;;;;;28.63;14.27;;;;;;;4.19;100.00;99875.00;4993334;28;20038;-84
2023/01/30 02:55:27;;;;;;;29.90;12.30;;;;;;;4.23;100.00;99889.56;4969568;28;20372;-83
2023/01/30 02:57:52;;;;;;;28.42;12.43;;;;;;;4.22;100.00;99881.78;4960531;28;20093;-85
2023/01/30 03:00:25;;;;;;;28.48;10.95;;;;;;;4.23;100.00;99889.56;4976692;28;20037;-85
2023/01/30 03:03:15;;;;;;;19.42;10.57;;;;;;;4.29;100.00;99882.06;4977350;28;20046;-84
2023/01/30 03:06:04;;;;;;;17.73;8.95;;;;;;;4.34;100.00;99875.34;4960319;28;20053;-84
2023/01/30 03:09:01;;;;;;;18.42;7.78;;;;;;;4.40;100.00;99879.22;4975451;28;20097;-83
2023/01/30 03:11:37;;;;;;;13.93;7.18;;;;;;;4.46;100.00;99905.09;4960167;28;20030;-84
2023/01/30 03:14:18;;;;;;;10.73;4.82;;;;;;;4.48;100.00;99900.50;4987456;28;20859;-84
2023/01/30 03:16:48;;;;;;;7.57;3.33;;;;;;;4.58;100.00;99911.03;4975021;28;20068;-82
2023/01/30 03:19:13;;;;;;;4.18;2.15;;;;;;;4.53;100.00;99895.59;4977336;28;20050;-83
2023/01/30 03:21:41;;;;;;;9.87;2.30;;;;;;;4.45;100.00;99892.88;4978748;28;20026;-84
2023/01/30 03:24:07;;;;;;;8.60;1.90;;;;;;;4.42;100.00;99891.34;4976666;28;20026;-84
2023/01/30 03:26:35;;;;;;;5.50;1.60;;;;;;;4.42;100.00;99886.06;4976313;28;20030;-84
2023/01/30 03:29:01;;;;;;;5.70;1.38;;;;;;;4.32;100.00;99868.56;4976174;28;20406;-83
2023/01/30 03:31:26;;;;;;;5.40;1.45;;;;;;;4.30;100.00;99871.34;4968776;28;20059;-84
2023/01/30 03:33:52;;;;;;;15.83;2.53;;;;;;;4.18;100.00;99873.31;4967814;28;20077;-83
2023/01/30 03:36:17;;;;;;;6.47;2.10;;;;;;;4.15;100.00;99860.41;4979396;28;21052;-85
2023/01/30 03:38:44;;;;;;;9.13;1.13;;;;;;;4.11;100.00;99844.97;4986028;28;20045;-84
2023/01/30 03:41:10;;;;;;;12.20;1.83;;;;;;;4.11;100.00;99845.78;4968607;28;20461;-85
2023/01/30 03:43:37;;;;;;;9.65;2.00;;;;;;;4.03;100.00;99821.91;4974903;28;20046;-83
2023/01/30 03:46:04;;;;;;;7.80;1.63;;;;;;;4.03;100.00;99816.63;4959073;28;20031;-85
2023/01/30 03:48:29;;;;;;;9.57;1.77;;;;;;;4.02;100.00;99817.59;4962033;28;20076;-83
2023/01/30 03:50:55;;;;;;;4.47;1.38;;;;;;;4.04;100.00;99818.28;4974638;28;20300;-82
2023/01/30 03:53:20;;;;;;;11.73;2.20;;;;;;;3.94;100.00;99817.50;4959561;28;20028;-85
2023/01/30 03:55:46;;;;;;;17.23;3.13;;;;;;;3.93;100.00;99810.53;4974538;28;20531;-85
2023/01/30 03:58:12;;;;;;;15.07;2.47;;;;;;;3.92;100.00;99814.97;4959596;28;20109;-85
2023/01/30 04:00:38;;;;;;;13.15;2.47;;;;;;;3.97;100.00;99822.47;4958158;28;20301;-83
2023/01/30 04:03:03;;;;;;;8.23;1.80;;;;;;;3.96;100.00;99820.81;4981975;28;20438;-81
2023/01/30 04:05:30;;;;;;;8.02;1.55;;;;;;;3.91;100.00;99812.47;4975035;28;20348;-85
2023/01/30 04:08:01;;;;;;;7.50;2.00;;;;;;;3.89;100.00;99810.00;4959810;28;20463;-84
2023/01/30 04:10:26;;;;;;;11.43;1.80;;;;;;;3.89;100.00;99807.34;4965024;28;20034;-84
2023/01/30 04:12:53;;;;;;;17.27;2.58;;;;;;;3.89;100.00;99798.59;4980623;28;20286;-84
2023/01/30 04:15:20;;;;;;;19.08;2.38;;;;;;;3.88;100.00;99786.34;4974863;28;20571;-84
2023/01/30 04:17:57;;;;;;;17.50;3.22;;;;;;;3.90;100.00;99797.63;4960534;28;20030;-85
2023/01/30 04:20:28;;;;;;;14.57;3.05;;;;;;;3.84;100.00;99783.19;4975036;28;20603;-83
2023/01/30 04:22:55;;;;;;;18.70;4.18;;;;;;;3.87;100.00;99779.44;4971297;28;20030;-84
2023/01/30 04:25:21;;;;;;;14.00;2.60;;;;;;;3.85;100.00;99786.66;4958858;28;20030;-86
2023/01/30 04:27:47;;;;;;;14.07;3.08;;;;;;;3.86;100.00;99793.59;4980925;28;20102;-84
2023/01/30 04:30:26;;;;;;;18.88;3.88;;;;;;;3.80;100.00;99789.72;4965531;28;20491;-84
2023/01/30 04:33:01;;;;;;;16.00;3.38;;;;;;;3.78;100.00;99789.03;4956103;28;20030;-84
2023/01/30 04:35:26;;;;;;;20.05;2.05;;;;;;;3.78;100.00;99775.81;4958248;28;20030;-84
2023/01/30 04:37:51;;;;;;;15.25;2.78;;;;;;;3.70;100.00;99773.03;4958442;28;20088;-84
2023/01/30 04:40:18;;;;;;;9.77;2.30;;;;;;;3.68;100.00;99786.41;4982281;28;20072;-81
2023/01/30 04:42:44;;;;;;;16.10;3.47;;;;;;;3.66;100.00;99784.88;4958720;28;20050;-85
2023/01/30 04:45:43;;;;;;;12.02;2.75;;;;;;;3.62;100.00;99781.69;4920150;29;20083;-85
2023/01/30 04:48:09;;;;;;;18.17;3.53;;;;;;;3.50;100.00;99777.53;4940183;29;20111;-83
2023/01/30 04:50:34;;;;;;;19.33;3.90;;;;;;;3.47;100.00;99768.09;4932228;29;20072;-85
2023/01/30 04:53:00;;;;;;;13.33;2.80;;;;;;;3.48;100.00;99769.75;4930022;29;20040;-85
2023/01/30 04:55:25;;;;;;;23.23;4.00;;;;;;;3.47;100.00;99752.28;4915819;29;20284;-85
2023/01/30 04:57:51;;;;;;;22.05;2.78;;;;;;;3.46;100.00;99745.31;4932181;29;20043;-84
2023/01/30 05:00:17;;;;;;;22.80;4.07;;;;;;;3.45;100.00;99734.91;4934558;29;20043;-85
2023/01/30 05:02:50;;;;;;;21.98;3.85;;;;;;;3.42;100.00;99732.53;4914702;29;20108;-84
2023/01/30 05:05:15;;;;;;;27.27;3.83;;;;;;;3.38;100.00;99726.72;4929336;29;20047;-84
2023/01/30 05:07:41;;;;;;;23.92;3.88;;;;;;;3.30;100.00;99723.94;4948812;28;20496;-82
2023/01/30 05:10:07;;;;;;;16.58;2.55;;;;;;;3.29;100.00;99725.75;4920365;29;20031;-84
2023/01/30 05:12:33;;;;;;;28.90;4.40;;;;;;;3.29;100.00;99728.38;4931700;29;20050;-81
2023/01/30 05:14:58;;;;;;;13.30;3.08;;;;;;;3.35;100.00;99722.56;4936462;29;20039;-85
2023/01/30 05:17:24;;;;;;;20.77;3.97;;;;;;;3.32;100.00;99722.00;4932152;29;20040;-84
2023/01/30 05:19:49;;;;;;;25.00;3.60;;;;;;;3.24;100.00;99717.44;4932838;29;20032;-85
2023/01/30 05:22:14;;;;;;;17.43;2.83;;;;;;;3.21;100.00;99714.22;4971586;28;20125;-84
2023/01/30 05:24:40;;;;;;;22.90;5.20;;;;;;;3.25;100.00;99716.44;4966714;28;20054;-84
2023/01/30 05:27:05;;;;;;;23.47;3.30;;;;;;;3.19;100.00;99706.47;4986671;28;20277;-82
2023/01/30 05:29:31;;;;;;;23.58;4.50;;;;;;;3.19;100.00;99710.94;4976063;28;20034;-82
2023/01/30 05:31:56;;;;;;;14.13;2.83;;;;;;;3.19;100.00;99727.56;4960100;28;20030;-84
2023/01/30 05:34:22;;;;;;;23.15;5.07;;;;;;;3.14;100.00;99728.00;4983398;28;20088;-85
2023/01/30 05:36:48;;;;;;;23.38;4.47;;;;;;;3.08;100.00;99717.16;4981401;28;20038;-81
2023/01/30 05:39:13;;;;;;;31.30;5.70;;;;;;;3.11;100.00;99724.78;4978271;28;20502;-87
2023/01/30 05:41:40;;;;;;;35.67;4.60;;;;;;;3.09;100.00;99730.22;4991571;28;20285;-87
2023/01/30 05:44:06;;;;;;;35.78;4.50;;;;;;;2.97;100.00;99726.03;4962238;28;20019;-86
2023/01/30 05:46:32;;;;;;;26.23;4.55;;;;;;;3.00;100.00;99738.97;4978586;28;20034;-87
2023/01/30 05:48:57;;;;;;;25.08;4.50;;;;;;;2.96;100.00;99737.56;4962841;28;20424;-86
2023/01/30 05:51:24;;;;;;;26.33;5.37;;;;;;;2.89;100.00;99734.66;4979628;28;20042;-87
2023/01/30 05:53:50;;;;;;;26.48;4.43;;;;;;;2.91;100.00;99745.88;4981615;28;20042;-88
2023/01/30 05:56:16;;;;;;;29.13;3.92;;;;;;;2.92;100.00;99757.25;5001573;28;20025;-85
2023/01/30 05:58:42;;;;;;;12.73;2.72;;;;;;;2.88;100.00;99751.44;4956248;28;20035;-86
2023/01/30 06:01:10;;;;;;;29.08;5.88;;;;;;;2.91;100.00;99755.63;4984383;28;20108;-84
2023/01/30 06:03:36;;;;;;;31.23;6.20;;;;;;;2.88;100.00;99767.28;4983600;28;20038;-86
2023/01/30 06:06:03;;;;;;;42.75;4.20;;;;;;;2.95;100.00;99764.91;4975088;28;20116;-85
2023/01/30 06:08:28;;;;;;;;;;;;;;;2.88;100.00;99772.53;4987436;28;20038;-87
2023/01/30 06:11:07;;;;;;;28.25;4.75;;;;;;;2.86;100.00;99768.38;5007987;28;20379;-86
2023/01/30 06:13:33;;;;;;;28.73;5.47;;;;;;;2.95;100.00;99778.09;4982521;28;20395;-86
2023/01/30 06:15:58;;;;;;;22.00;5.22;;;;;;;2.84;100.00;99765.88;4975920;28;20034;-88
2023/01/30 06:18:24;;;;;;;30.85;6.85;;;;;;;2.85;100.00;99775.44;4965551;28;20069;-87
2023/01/30 06:20:51;;;;;;;31.23;3.80;;;;;;;2.89;100.00;99768.91;5001546;28;20065;-87
2023/01/30 06:23:17;;;;;;;31.42;5.03;;;;;;;2.82;100.00;99762.53;4979533;28;20034;-86
2023/01/30 06:25:44;;;;;;;27.15;5.85;;;;;;;3.05;100.00;99775.47;4986883;28;20080;-86
2023/01/30 06:28:09;;;;;;;21.45;4.85;;;;;;;3.04;100.00;99771.16;4969676;28;20623;-87
2023/01/30 06:30:34;;;;;;;31.30;5.07;;;;;;;2.99;100.00;99766.28;4964037;28;20041;-86
2023/01/30 06:33:00;;;;;;;28.87;4.63;;;;;;;2.94;100.00;99756.16;4988490;28;20045;-86
2023/01/30 06:35:25;;;;;;;30.67;4.13;;;;;;;2.93;100.00;99762.41;4979853;28;20331;-85
2023/01/30 06:37:50;;;;;;;39.22;5.90;;;;;;;2.94;100.00;99768.50;4981505;28;20042;-85
2023/01/30 06:40:16;;;;;;;38.97;3.27;;;;;;;3.02;100.00;99767.81;4979365;28;20066;-87
2023/01/30 06:42:49;;;;;;;31.63;5.18;;;;;;;3.00;100.00;99765.34;5007108;28;20340;-86
2023/01/30 06:45:17;;;;;;;29.95;4.45;;;;;;;2.96;100.00;99753.38;4998628;28;20487;-86
2023/01/30 06:48:03;;;;;;;29.13;4.22;;;;;;;2.92;100.00;99750.19;4966954;28;20030;-86
2023/01/30 06:50:36;;;;;;;26.55;4.72;;;;;;;2.93;100.00;99748.41;4977850;28;20049;-87
2023/01/30 06:53:04;;;;;;;28.30;4.93;;;;;;;2.92;100.00;99752.00;4977129;28;20034;-86
2023/01/30 06:55:35;;;;;;;32.00;6.20;;;;;;;2.95;100.00;99752.56;4978773;28;20175;-87
2023/01/30 06:58:05;;;;;;;29.17;4.57;;;;;;;3.02;100.00;99763.41;4983327;28;20029;-86
2023/01/30 07:00:32;;;;;;;26.80;4.38;;;;;;;2.95;100.00;99762.28;4992091;28;20484;-86
2023/01/30 07:02:57;;;;;;;29.33;3.60;;;;;;;3.03;100.00;99761.59;4998571;28;20888;-85
2023/01/30 07:05:23;;;;;;;34.15;5.75;;;;;;;2.96;100.00;99759.50;4969342;28;20038;-88
2023/01/30 07:07:48;;;;;;;34.17;5.28;;;;;;;2.94;100.00;99755.31;4964813;28;20129;-85
2023/01/30 07:10:14;;;;;;;36.65;5.18;;;;;;;2.95;100.00;99768.38;4997397;28;20021;-84
2023/01/30 07:12:39;;;;;;;32.58;5.55;;;;;;;3.09;100.00;99777.69;4964078;28;20506;-84
2023/01/30 07:15:06;;;;;;;32.53;4.93;;;;;;;3.12;100.00;99773.94;4977705;28;20022;-85
2023/01/30 07:17:32;;;;;;;29.55;4.32;;;;;;;3.15;100.00;99763.94;4995207;28;20026;-86
2023/01/30 07:19:57;;;;;;;27.83;4.93;;;;;;;3.18;100.00;99773.38;4980286;28;20038;-85
2023/01/30 07:22:22;;;;;;;23.23;4.50;;;;;;;3.14;100.00;99756.19;4976786;28;20053;-88
2023/01/30 07:24:48;;;;;;;27.80;5.70;;;;;;;3.22;100.00;99761.59;4960949;28;20812;-86
2023/01/30 07:27:13;;;;;;;24.65;4.97;;;;;;;3.28;100.00;99761.03;4977106;28;20076;-85
2023/01/30 07:29:39;;;;;;;33.10;5.03;;;;;;;3.28;100.00;99753.13;4959737;28;20039;-87
2023/01/30 07:32:06;;;;;;;22.75;4.60;;;;;;;3.33;100.00;99734.22;4981445;28;20817;-85
2023/01/30 07:34:35;;;;;;;32.85;6.53;;;;;;;3.32;100.00;99727.28;4977537;28;20517;-84
2023/01/30 07:37:00;;;;;;;34.92;5.18;;;;;;;3.39;100.00;99720.47;4990992;28;20026;-84
2023/01/30 07:39:25;;;;;;;22.43;4.60;;;;;;;3.38;100.00;99721.44;4969044;28;20037;-86
2023/01/30 07:41:51;;;;;;;27.33;6.33;;;;;;;3.55;100.00;99711.97;4988795;28;20037;-85
2023/01/30 07:44:16;;;;;;;30.88;4.32;;;;;;;3.58;100.00;99695.84;4978267;28;20039;-85
2023/01/30 07:46:41;;;;;;;24.37;3.47;;;;;;;3.69;100.00;99692.19;4972108;28;20050;-85
2023/01/30 07:49:08;;;;;;;28.80;5.73;;;;;;;3.81;100.00;99686.59;4976261;28;20046;-84
2023/01/30 07:51:34;;;;;;;27.98;4.68;;;;;;;4.05;100.00;99682.63;4970763;28;20030;-84
2023/01/30 07:54:02;;;;;;;28.38;4.90;;;;;;;4.18;100.00;99659.31;4974184;28;20033;-84
2023/01/30 07:56:28;;;;;;;31.38;6.05;;;;;;;4.27;100.00;99640.91;4975587;28;20515;-85
2023/01/30 07:58:55;;;;;;;24.95;4.78;;;;;;;4.26;100.00;99626.88;4960925;28;20033;-84
2023/01/30 08:01:20;;;;;;;;;;;;;;;4.17;100.00;99594.25;4991828;28;20092;-85
2023/01/30 08:03:48;;;;;;;26.20;5.97;;;;;;;4.09;100.00;99594.16;4974868;28;19913;-86
2023/01/30 08:06:14;;;;;;;21.67;4.97;;;;;;;4.13;100.00;99584.97;4961320;28;20038;-86
2023/01/30 08:08:41;;;;;;;27.05;5.25;;;;;;;4.19;100.00;99583.53;4978930;28;20396;-85
2023/01/30 08:11:06;;;;;;;24.08;5.00;;;;;;;4.16;100.00;99563.53;4978684;28;20091;-85
2023/01/30 08:13:32;;;;;;;17.85;4.13;;;;;;;4.35;100.00;99557.25;4979572;28;20350;-82
2023/01/30 08:16:02;;;;;;;30.30;4.27;;;;;;;4.79;100.00;99567.03;4972606;28;20551;-81
2023/01/30 08:18:28;;;;;;;28.50;6.15;;;;;;;4.94;100.00;99536.41;4972626;28;20045;-85
2023/01/30 08:20:58;;;;;;;37.20;6.43;;;;;;;4.97;100.00;99501.72;4973516;28;20034;-85
2023/01/30 08:23:23;;;;;;;32.45;5.32;;;;;;;4.91;100.00;99467.13;4974283;28;20030;-86
2023/01/30 08:25:49;;;;;;;23.77;4.97;;;;;;;4.79;100.00;99448.03;4990453;28;20123;-84
2023/01/30 08:28:14;;;;;;;31.53;5.33;;;;;;;4.93;100.00;99458.03;4976550;28;20069;-84
2023/01/30 08:30:40;;;;;;;37.13;6.17;;;;;;;4.78;100.00;99443.75;4960119;28;20034;-85
2023/01/30 08:33:05;;;;;;;38.92;5.72;;;;;;;4.67;100.00;99426.34;4976869;28;20282;-86
2023/01/30 08:35:31;;;;;;;33.90;6.10;;;;;;;4.56;100.00;99410.72;4963027;28;20042;-86
2023/01/30 08:37:56;;;;;;;30.53;6.03;;;;;;;4.49;100.00;99438.78;4958684;28;20273;-84
2023/01/30 08:40:29;;;;;;;40.83;6.07;;;;;;;4.37;100.00;99443.50;4984787;28;20022;-86
2023/01/30 08:42:54;;;;;;;37.85;6.03;;;;;;;4.18;100.00;99466.47;4984000;28;20053;-85
2023/01/30 08:45:19;;;;;;;35.10;5.60;;;;;;;4.13;100.00;99494.31;4971823;28;20112;-85
2023/01/30 08:47:45;;;;;;;40.63;5.43;;;;;;;4.09;100.00;99509.63;4956447;28;20097;-85
2023/01/30 08:50:10;;;;;;;36.43;4.67;;;;;;;4.12;100.00;99509.34;4955922;28;20999;-85
2023/01/30 08:52:44;;;;;;;28.70;5.55;;;;;;;4.15;100.00;99485.25;4982417;28;20100;-85
2023/01/30 08:55:10;;;;;;;25.33;5.30;;;;;;;4.12;100.00;99488.22;4957433;28;20310;-84
2023/01/30 08:57:36;;;;;;;29.92;5.22;;;;;;;4.14;100.00;99501.25;4985055;28;20099;-85
2023/01/30 09:00:02;;;;;;;34.78;5.28;;;;;;;4.10;100.00;99516.59;4970548;28;20474;-84
2023/01/30 09:02:34;;;;;;;35.17;6.35;;;;;;;3.97;100.00;99558.38;5103120;27;20372;-73
2023/01/30 09:05:00;;;;;;;33.03;4.33;;;;;;;3.73;100.00;99577.44;5104720;28;20035;-73
2023/01/30 09:07:27;;;;;;;33.67;4.60;;;;;;;3.62;100.00;99610.13;5103540;28;20318;-73
2023/01/30 09:09:53;;;;;;;33.83;6.13;;;;;;;3.45;100.00;99610.88;5099515;28;20027;-74
2023/01/30 09:12:18;;;;;;;25.10;4.13;;;;;;;3.34;100.00;99622.44;5103460;28;20032;-74
2023/01/30 09:14:44;;;;;;;34.77;3.87;;;;;;;3.30;100.00;99672.03;5101899;28;20039;-73
2023/01/30 09:17:09;;;;;;;39.25;4.05;;;;;;;3.29;100.00;99694.09;5084873;28;20030;-74
2023/01/30 09:19:36;;;;;;;20.27;4.53;;;;;;;3.10;100.00;99689.69;5100623;28;20097;-74
2023/01/30 09:22:01;;;;;;;26.23;4.00;;;;;;;3.01;100.00;99730.06;5095956;28;20516;-74
2023/01/30 09:24:26;;;;;;;23.67;4.43;;;;;;;2.93;100.00;99738.69;5103119;28;20042;-74
2023/01/30 09:26:57;;;;;;;16.60;4.43;;;;;;;2.94;100.00;99776.41;5097558;28;20036;-74
2023/01/30 09:29:24;;;;;;;18.80;4.28;;;;;;;2.75;100.00;99745.59;5111124;28;20291;-74
2023/01/30 09:31:49;;;;;;;20.20;3.05;;;;;;;2.74;100.00;99759.75;5102317;27;20392;-74
2023/01/30 09:34:15;;;;;;;17.95;3.22;;;;;;;2.75;100.00;99779.88;5099850;28;20027;-74
2023/01/30 09:36:40;;;;;;;33.63;6.80;;;;;;;2.78;100.00;99755.84;5097202;28;20077;-74
2023/01/30 09:39:06;;;;;;;29.00;4.55;;;;;;;2.90;100.00;99781.16;5101066;28;20089;-74
2023/01/30 09:42:03;;;;;;;25.65;3.55;;;;;;;3.04;100.00;99787.81;5098246;28;20027;-74
2023/01/30 09:44:58;;;;;;;14.80;3.03;;;;;;;3.24;100.00;99787.84;5081605;28;20044;-74
2023/01/30 09:47:49;;;;;;;34.30;4.72;;;;;;;3.43;100.00;99797.53;5101379;28;20409;-74
2023/01/30 09:50:30;;;;;;;23.67;5.13;;;;;;;3.56;100.00;99783.09;5084605;28;20048;-74
2023/01/30 09:53:13;;;;;;;26.05;4.50;;;;;;;3.72;100.00;99782.53;5095962;28;20031;-74
2023/01/30 09:55:42;;;;;;;27.65;5.75;;;;;;;3.87;100.00;99776.78;5099753;28;20032;-73
2023/01/30 09:58:17;;;;;;;23.75;3.83;;;;;;;4.00;100.00;99756.16;5096584;28;20077;-73
2023/01/30 10:00:42;;;;;;;30.35;5.95;;;;;;;4.05;100.00;99739.88;5102094;28;20047;-74
2023/01/30 10:03:14;;;;;;;23.90;4.78;;;;;;;4.11;100.00;99750.69;5101940;28;20032;-74
2023/01/30 10:06:15;;;;;;;27.63;4.45;;;;;;;4.19;100.00;99716.47;5102893;28;20040;-74
2023/01/30 10:08:54;;;;;;;25.73;5.38;;;;;;;4.35;100.00;99680.63;5099765;28;20510;-74
2023/01/30 10:12:00;;;;;;;21.83;3.90;;;;;;;4.59;100.00;99657.13;5077717;28;20450;-74
2023/01/30 10:14:45;;;;;;;20.13;4.07;;;;;;;4.69;100.00;99619.19;5054844;28;20131;-74
2023/01/30 10:17:35;;;;;;;16.25;3.17;;;;;;;4.87;100.00;99588.28;5085637;28;20035;-73
2023/01/30 10:20:19;;;;;;;18.30;3.67;;;;;;;4.81;100.00;99536.81;5082394;28;20126;-74
2023/01/30 10:23:25;;;;;;;16.52;2.40;;;;;;;4.59;100.00;99487.94;5085235;28;20395;-73
2023/01/30 10:26:14;;;;;;;26.52;3.53;;;;;;;4.38;100.00;99466.31;5048078;28;21038;-73
2023/01/30 10:28:45;;;;;;;19.30;4.03;;;;;;;4.15;100.00;99492.38;5065260;28;20137;-74
2023/01/30 10:31:15;;;;;;;16.38;3.42;;;;;;;3.96;100.00;99493.34;5042909;28;20536;-73
2023/01/30 10:33:49;;;;;;;20.67;3.95;;;;;;;3.78;100.00;99525.84;5044336;28;20040;-73
2023/01/30 10:36:24;;;;;;;21.08;2.88;;;;;;;3.72;100.00;99552.84;5061776;28;20194;-74
2023/01/30 10:38:52;;;;;;;20.43;4.13;;;;;;;3.75;100.00;99618.53;5031632;28;20041;-73
2023/01/30 10:41:25;;;;;;;13.27;3.33;;;;;;;3.79;100.00;99635.75;5047835;28;20043;-73
2023/01/30 10:44:00;;;;;;;16.23;3.03;;;;;;;3.91;100.00;99654.03;5064990;28;20044;-74
2023/01/30 10:46:45;;;;;;;22.65;5.50;;;;;;;3.75;100.00;99637.03;5048206;28;20772;-73
2023/01/30 10:49:11;;;;;;;16.50;3.20;;;;;;;3.76;100.00;99657.16;5056412;28;20041;-73
2023/01/30 10:51:42;;;;;;;16.42;2.63;;;;;;;3.72;100.00;99641.75;5060933;28;20292;-73
2023/01/30 10:54:27;;;;;;;17.58;2.67;;;;;;;3.80;100.00;99652.44;5052530;28;20044;-73
2023/01/30 10:57:02;;;;;;;;;;;;;;;3.85;100.00;99654.63;5064680;28;20037;-73
2023/01/30 10:59:37;;;;;;;18.88;3.08;;;;;;;3.86;100.00;99666.84;5052535;28;19916;-75
2023/01/30 11:02:21;;;;;;;9.80;2.00;;;;;;;3.83;100.00;99641.56;5075707;28;20428;-73
2023/01/30 11:05:17;;;;;;;12.27;2.03;;;;;;;3.93;100.00;99641.50;5092593;28;20060;-74
2023/01/30 11:07:45;;;;;;;15.85;2.45;;;;;;;3.99;100.00;99638.28;5082560;28;20559;-74
2023/01/30 11:10:23;;;;;;;15.43;2.58;;;;;;;4.04;100.00;99636.03;5066340;28;20142;-73
2023/01/30 11:12:59;;;;;;;15.68;3.45;;;;;;;3.99;100.00;99622.44;5085986;28;20036;-74
2023/01/30 11:15:37;;;;;;;;;;;;;;;3.99;100.00;99609.25;5082009;28;20106;-73
2023/01/30 11:18:06;;;;;;;18.00;2.33;;;;;;;3.95;100.00;99602.59;5069293;28;19923;-74
2023/01/30 11:20:42;;;;;;;11.25;2.75;;;;;;;3.97;100.00;99596.19;5085526;28;20039;-74
2023/01/30 11:23:25;;;;;;;9.48;1.52;;;;;;;3.93;100.00;99580.78;5087452;28;20066;-74
2023/01/30 11:25:55;;;;;;;10.05;2.42;;;;;;;3.97;100.00;99590.06;5100536;28;20036;-74
2023/01/30 11:28:21;;;;;;;17.05;3.63;;;;;;;3.99;100.00;99590.75;5086830;28;20028;-74
2023/01/30 11:30:59;;;;;;;;;;;;;;;3.96;100.00;99618.28;5087351;28;20107;-75
2023/01/30 11:33:37;;;;;;;17.85;2.83;;;;;;;3.96;100.00;99604.28;5085778;28;19972;-74
2023/01/30 11:36:22;;;;;;;8.95;2.35;;;;;;;3.90;100.00;99620.69;5085084;28;20043;-73
2023/01/30 11:39:11;;;;;;;16.25;3.20;;;;;;;3.92;100.00;99618.75;5084238;28;20119;-74
2023/01/30 11:41:40;;;;;;;17.67;2.20;;;;;;;3.88;100.00;99627.91;5059723;28;20046;-73
2023/01/30 11:44:08;;;;;;;8.98;3.35;;;;;;;4.01;100.00;99633.69;5086740;28;20028;-73